MHLC/LCE METAR and TAF weather

Enter ICAO airport designator
Station Type Date Time Source
MHLC METAR 2021/09/25 13:00 UTC NOAA

MHLC 251300Z 21003KT CAVOK 23/22 Q1013 A2992 NOSIG


Station Type Date Time Source
MHLC Decoded METAR 2021/09/25 13:00 UTC NOAA

La Ceiba Airport , Honduras (MHLC) 15-44N 086-52W 26M
Sep 25, 2021 - 09:00 AM EDT / 2021.09.25 1300 UTC
Wind: from the SSW (210 degrees) at 3 MPH (3 KT):0
Visibility: greater than 7 mile(s):0
Temperature: 73 F (23 C)
Dew Point: 71 F (22 C)
Relative Humidity: 94%
Pressure (altimeter): 29.92 in. Hg (1013 hPa)
ob: MHLC 251300Z 21003KT CAVOK 23/22 Q1013 A2992 NOSIG
cycle: 13

Station Type Date Time Source
MHLC TAF 2021/09/25 12:56 UTC NOAA

TAF MHLC 251100Z 2512/2612 VRB02KT 9999 FEW026 TX31/2519Z TN23/2612Z
BECMG 2516/2518 05010KT SCT028TCU
TEMPO 2520/2601 4000 TSRA SCT032CB
BECMG 2601/2603 19003KT 9999 NSW SCT025

Example: see airport list